createdAt,value
2018-03-28T00:00:42.398Z,4.63
2018-03-28T00:03:09.480Z,4.30
2018-03-28T00:05:37.053Z,4.80
2018-03-28T00:08:04.216Z,4.83
2018-03-28T00:10:32.598Z,4.60
2018-03-28T00:13:00.661Z,4.73
2018-03-28T00:15:28.429Z,4.60
2018-03-28T00:17:56.053Z,5.30
2018-03-28T00:20:23.775Z,4.57
2018-03-28T00:22:51.529Z,4.33
2018-03-28T00:25:18.373Z,4.80
2018-03-28T00:27:45.299Z,5.07
2018-03-28T00:30:12.381Z,4.60
2018-03-28T00:32:39.543Z,5.27
2018-03-28T00:35:06.477Z,4.00
2018-03-28T00:37:33.553Z,4.90
2018-03-28T00:40:01.165Z,4.93
2018-03-28T00:42:28.048Z,4.50
2018-03-28T00:44:56.640Z,5.07
2018-03-28T00:47:23.610Z,4.97
2018-03-28T00:49:50.715Z,5.57
2018-03-28T00:52:17.535Z,5.03
2018-03-28T00:54:44.719Z,4.70
2018-03-28T00:57:11.602Z,5.00
2018-03-28T00:59:39.243Z,5.37
2018-03-28T01:02:06.057Z,5.43
2018-03-28T01:04:33.044Z,4.47
2018-03-28T01:06:59.988Z,5.00
2018-03-28T01:09:27.166Z,5.33
2018-03-28T01:11:54.112Z,5.33
2018-03-28T01:14:21.160Z,5.07
2018-03-28T01:16:48.116Z,4.87
2018-03-28T01:19:15.478Z,4.47
2018-03-28T01:21:42.529Z,5.30
2018-03-28T01:24:09.596Z,4.90
2018-03-28T01:26:36.630Z,5.00
2018-03-28T01:29:03.534Z,5.47
2018-03-28T01:31:30.391Z,4.90
2018-03-28T01:33:57.693Z,4.50
2018-03-28T01:36:24.654Z,4.50
2018-03-28T01:38:51.921Z,4.67
2018-03-28T01:41:19.584Z,5.13
2018-03-28T01:43:47.233Z,4.93
2018-03-28T01:46:14.864Z,5.10
2018-03-28T01:48:41.862Z,5.37
2018-03-28T01:51:09.570Z,3.90
2018-03-28T01:53:36.469Z,5.07
2018-03-28T01:56:04.132Z,4.40
2018-03-28T01:58:31.893Z,4.27
2018-03-28T02:00:58.863Z,4.90
2018-03-28T02:03:25.806Z,4.60
2018-03-28T02:05:53.069Z,5.20
2018-03-28T02:08:20.026Z,4.17
2018-03-28T02:10:47.286Z,5.10
2018-03-28T02:13:14.227Z,4.40
2018-03-28T02:15:41.371Z,4.87
2018-03-28T02:18:09.093Z,5.10
2018-03-28T02:20:36.209Z,4.67
2018-03-28T02:23:03.982Z,5.40
2018-03-28T02:25:31.032Z,4.63
2018-03-28T02:27:58.071Z,4.50
2018-03-28T02:30:25.024Z,5.10
2018-03-28T02:32:52.289Z,4.73
2018-03-28T02:35:19.330Z,4.57
2018-03-28T02:37:46.507Z,4.83
2018-03-28T02:40:14.145Z,4.87
2018-03-28T02:42:41.221Z,4.27
2018-03-28T02:45:08.278Z,4.67
2018-03-28T02:47:35.347Z,5.23
2018-03-28T02:50:02.213Z,4.53
2018-03-28T03:02:19.891Z,5.57
2018-03-28T03:04:47.058Z,5.07
2018-03-28T03:07:13.990Z,5.93
2018-03-28T03:09:41.157Z,4.83
2018-03-28T03:12:10.036Z,6.07
2018-03-28T03:14:36.993Z,5.97
2018-03-28T03:17:04.313Z,6.30
2018-03-28T03:19:31.194Z,5.93
2018-03-28T03:21:58.360Z,5.13
2018-03-28T03:24:25.190Z,5.47
2018-03-28T03:26:52.968Z,5.90
2018-03-28T03:29:19.990Z,6.07
2018-03-28T03:31:47.438Z,5.80
2018-03-28T03:34:14.328Z,5.30
2018-03-28T03:36:41.697Z,6.67
2018-03-28T03:39:08.734Z,6.00
2018-03-28T03:41:36.544Z,5.93
2018-03-28T03:44:04.398Z,5.80
2018-03-28T03:46:31.543Z,5.70
2018-03-28T03:48:58.694Z,5.70
2018-03-28T03:51:26.057Z,5.90
2018-03-28T03:53:53.714Z,5.80
2018-03-28T03:56:20.778Z,6.03
2018-03-28T03:58:48.585Z,5.73
2018-03-28T04:01:16.321Z,6.00
2018-03-28T04:03:43.548Z,6.00
2018-03-28T04:06:11.468Z,5.83
2018-03-28T04:08:38.358Z,5.47
2018-03-28T04:11:06.166Z,5.50
2018-03-28T04:13:33.113Z,5.17
2018-03-28T04:16:00.673Z,5.27
2018-03-28T04:18:27.682Z,5.00
2018-03-28T04:20:54.675Z,5.13
2018-03-28T04:23:21.638Z,5.30
2018-03-28T04:25:48.911Z,5.43
2018-03-28T04:28:16.642Z,5.60
2018-03-28T04:30:43.906Z,4.63
2018-03-28T04:33:10.857Z,4.50
2018-03-28T04:35:38.116Z,5.40
2018-03-28T04:38:05.818Z,4.87
2018-03-28T04:40:32.736Z,5.03
2018-03-28T04:43:00.414Z,5.40
2018-03-28T04:45:27.343Z,5.23
2018-03-28T04:47:55.037Z,4.60
2018-03-28T04:50:24.541Z,4.33
2018-03-28T04:52:52.301Z,4.67
2018-03-28T04:55:19.870Z,4.50
2018-03-28T04:57:46.808Z,4.47
2018-03-28T05:00:13.765Z,4.83
2018-03-28T05:02:40.920Z,4.70
2018-03-28T05:05:07.996Z,4.20
2018-03-28T05:07:37.074Z,4.57
2018-03-28T05:10:04.167Z,3.93
2018-03-28T05:12:31.743Z,3.87
2018-03-28T05:14:58.731Z,3.10
2018-03-28T05:17:25.802Z,3.53
2018-03-28T05:19:53.668Z,3.13
2018-03-28T05:22:20.619Z,3.50
2018-03-28T05:24:47.671Z,2.73
2018-03-28T05:27:14.782Z,2.90
2018-03-28T05:29:41.878Z,2.50
2018-03-28T05:32:09.850Z,2.20
2018-03-28T05:34:37.126Z,2.63
2018-03-28T05:37:04.263Z,2.03
2018-03-28T05:39:31.314Z,2.67
2018-03-28T05:41:58.481Z,2.30
2018-03-28T05:44:26.918Z,2.40
2018-03-28T05:46:53.740Z,2.47
2018-03-28T05:49:21.372Z,2.47
2018-03-28T05:51:48.414Z,2.20
2018-03-28T05:54:16.096Z,2.73
2018-03-28T05:56:43.030Z,2.50
2018-03-28T05:59:10.389Z,2.57
2018-03-28T06:01:39.071Z,4.37
2018-03-28T06:04:06.051Z,4.63
2018-03-28T06:06:34.533Z,3.10
2018-03-28T06:09:01.473Z,4.57
2018-03-28T06:11:28.773Z,4.30
2018-03-28T06:13:55.674Z,4.30
2018-03-28T06:16:22.894Z,5.40
2018-03-28T06:18:49.894Z,4.40
2018-03-28T06:21:17.141Z,4.77
2018-03-28T06:23:44.082Z,4.30
2018-03-28T06:26:11.560Z,13.20
2018-03-28T06:28:40.662Z,9.70
2018-03-28T06:31:07.592Z,9.57
2018-03-28T06:33:35.092Z,8.83
2018-03-28T06:36:02.731Z,9.17
2018-03-28T06:38:29.884Z,8.80
2018-03-28T06:40:57.408Z,9.30
2018-03-28T06:43:24.409Z,8.30
2018-03-28T06:45:51.305Z,8.20
2018-03-28T06:48:18.403Z,8.53
2018-03-28T06:50:45.362Z,8.70
2018-03-28T06:53:12.304Z,9.53
2018-03-28T06:55:39.107Z,8.37
2018-03-28T06:58:06.122Z,8.50
2018-03-28T07:00:34.539Z,8.70
2018-03-28T07:03:01.452Z,8.60
2018-03-28T07:05:29.132Z,8.43
2018-03-28T07:07:56.760Z,9.40
2018-03-28T07:10:23.724Z,8.27
2018-03-28T07:12:50.736Z,9.23
2018-03-28T07:15:17.834Z,8.30
2018-03-28T07:17:44.779Z,8.57
2018-03-28T07:20:11.730Z,8.20
2018-03-28T07:22:38.791Z,10.60
2018-03-28T07:25:06.803Z,8.70
2018-03-28T07:27:34.630Z,8.27
2018-03-28T07:30:01.784Z,7.93
2018-03-28T07:32:29.599Z,7.57
2018-03-28T07:34:56.502Z,7.57
2018-03-28T07:37:24.074Z,7.80
2018-03-28T07:39:51.745Z,8.30
2018-03-28T07:42:18.897Z,7.80
2018-03-28T07:44:45.963Z,8.20
2018-03-28T07:47:13.093Z,7.40
2018-03-28T07:49:40.967Z,7.70
2018-03-28T07:52:07.866Z,7.93
2018-03-28T07:54:35.441Z,7.77
2018-03-28T07:57:02.545Z,7.73
2018-03-28T07:59:30.211Z,6.33
2018-03-28T08:01:57.350Z,7.23
2018-03-28T08:04:24.307Z,5.27
2018-03-28T08:06:51.161Z,6.63
2018-03-28T08:09:18.214Z,5.60
2018-03-28T08:11:45.049Z,5.70
2018-03-28T08:14:11.896Z,6.27
2018-03-28T08:16:38.873Z,5.27
2018-03-28T08:19:06.524Z,5.10
2018-03-28T08:21:33.456Z,4.63
2018-03-28T08:24:00.374Z,4.23
2018-03-28T08:26:27.369Z,4.27
2018-03-28T08:28:54.321Z,4.83
2018-03-28T08:31:21.180Z,4.30
2018-03-28T08:33:48.732Z,4.43
2018-03-28T08:36:15.690Z,4.20
2018-03-28T08:38:43.300Z,4.40
2018-03-28T08:41:10.304Z,3.70
2018-03-28T08:43:37.389Z,4.00
2018-03-28T08:46:04.429Z,3.20
2018-03-28T08:48:32.188Z,4.20
2018-03-28T08:50:59.101Z,3.80
2018-03-28T08:53:26.389Z,3.57
2018-03-28T08:55:54.188Z,3.43
2018-03-28T08:58:21.100Z,3.10
2018-03-28T09:00:48.888Z,2.83
2018-03-28T09:03:15.914Z,3.90
2018-03-28T09:05:43.277Z,4.40
2018-03-28T09:08:10.539Z,4.00
2018-03-28T09:10:37.494Z,4.80
2018-03-28T09:13:04.395Z,3.93
2018-03-28T09:15:31.493Z,4.43
2018-03-28T09:17:58.571Z,4.77
2018-03-28T09:20:26.208Z,3.47
2018-03-28T09:22:53.110Z,3.47
2018-03-28T09:25:20.268Z,4.33
2018-03-28T09:27:47.165Z,3.17
2018-03-28T09:30:15.080Z,6.40
2018-03-28T09:32:42.788Z,5.70
2018-03-28T09:35:09.764Z,6.20
2018-03-28T09:37:37.433Z,7.17
2018-03-28T09:40:04.599Z,7.70
2018-03-28T09:42:32.444Z,7.30
2018-03-28T09:44:59.344Z,7.60
2018-03-28T09:47:26.232Z,7.13
2018-03-28T09:49:53.029Z,7.00
2018-03-28T09:52:20.657Z,7.27
2018-03-28T09:54:47.984Z,7.90
2018-03-28T09:57:15.791Z,7.33
2018-03-28T09:59:42.733Z,7.97
2018-03-28T10:02:09.712Z,7.10
2018-03-28T10:04:43.409Z,7.13
2018-03-28T10:07:10.744Z,7.67
2018-03-28T10:09:38.425Z,7.67
2018-03-28T10:12:05.227Z,7.17
2018-03-28T10:14:32.226Z,7.20
2018-03-28T10:16:59.395Z,7.97
2018-03-28T10:19:26.426Z,7.57
2018-03-28T10:21:53.382Z,7.90
2018-03-28T10:24:20.399Z,8.30
2018-03-28T10:26:47.277Z,7.97
2018-03-28T10:29:14.325Z,8.13
2018-03-28T10:31:41.434Z,7.73
2018-03-28T10:34:08.326Z,8.00
2018-03-28T10:36:35.481Z,7.03
2018-03-28T10:39:02.428Z,6.80
2018-03-28T10:41:29.705Z,6.17
2018-03-28T10:43:56.636Z,7.30
2018-03-28T10:46:23.559Z,6.83
2018-03-28T10:48:50.356Z,7.77
2018-03-28T10:51:17.287Z,7.63
2018-03-28T10:53:44.121Z,8.60
2018-03-28T10:56:11.298Z,7.77
2018-03-28T10:58:40.457Z,9.90
2018-03-28T11:01:07.757Z,9.00
2018-03-28T11:03:34.712Z,8.63
2018-03-28T11:06:02.481Z,8.97
2018-03-28T11:08:29.751Z,9.17
2018-03-28T11:10:56.673Z,7.90
2018-03-28T11:13:23.595Z,8.93
2018-03-28T11:15:50.595Z,9.03
2018-03-28T11:18:18.213Z,8.70
2018-03-28T11:20:45.100Z,8.23
2018-03-28T11:23:12.511Z,9.37
2018-03-28T11:25:39.435Z,8.87
2018-03-28T11:28:07.314Z,8.63
2018-03-28T11:30:35.157Z,8.77
2018-03-28T11:33:02.929Z,8.20
2018-03-28T11:35:30.487Z,8.53
2018-03-28T11:37:57.594Z,8.10
2018-03-28T11:40:25.154Z,8.40
2018-03-28T11:42:52.036Z,8.70
2018-03-28T11:45:19.101Z,8.17
2018-03-28T11:47:46.065Z,8.37
2018-03-28T11:50:12.944Z,7.53
2018-03-28T11:52:39.961Z,8.30
2018-03-28T11:55:07.328Z,7.87
2018-03-28T11:57:35.082Z,7.23
2018-03-28T12:00:02.558Z,6.90
2018-03-28T12:02:31.234Z,6.37
2018-03-28T12:04:58.140Z,5.90
2018-03-28T12:07:25.337Z,5.60
2018-03-28T12:09:52.316Z,4.90
2018-03-28T12:12:19.909Z,4.30
2018-03-28T12:14:46.828Z,5.27
2018-03-28T12:17:14.398Z,5.57
2018-03-28T12:19:42.769Z,4.97
2018-03-28T12:22:10.428Z,5.40
2018-03-28T12:24:37.469Z,5.87
2018-03-28T12:27:04.260Z,5.17
2018-03-28T12:29:31.375Z,4.53
2018-03-28T12:31:58.429Z,4.37
2018-03-28T12:34:25.902Z,4.70
2018-03-28T12:36:52.988Z,4.33
2018-03-28T12:39:20.213Z,4.97
2018-03-28T12:41:47.890Z,4.67
2018-03-28T12:44:15.733Z,4.47
2018-03-28T12:46:42.642Z,4.17
2018-03-28T12:49:10.218Z,4.13
2018-03-28T12:51:37.324Z,4.27
2018-03-28T12:54:05.594Z,3.87
2018-03-28T12:56:32.493Z,4.00
2018-03-28T12:59:00.161Z,4.33
2018-03-28T13:01:27.174Z,3.50
2018-03-28T13:03:55.634Z,3.37
2018-03-28T13:06:22.501Z,3.50
2018-03-28T13:08:50.261Z,3.13
2018-03-28T13:11:17.223Z,3.07
2018-03-28T13:13:44.794Z,2.70
2018-03-28T13:16:12.453Z,2.50
2018-03-28T13:18:40.283Z,2.83
2018-03-28T13:21:07.102Z,2.67
2018-03-28T13:23:33.944Z,2.10
2018-03-28T13:26:01.080Z,2.40
2018-03-28T13:28:28.929Z,2.30
2018-03-28T13:30:56.081Z,2.00
2018-03-28T13:33:22.986Z,2.27
2018-03-28T13:35:50.535Z,2.33
2018-03-28T13:38:17.440Z,2.60
2018-03-28T13:40:44.973Z,2.40
2018-03-28T13:43:11.864Z,2.50
2018-03-28T13:45:38.910Z,2.60
2018-03-28T13:48:06.104Z,2.63
2018-03-28T13:50:33.848Z,2.40
2018-03-28T13:53:01.201Z,2.33
2018-03-28T13:55:28.108Z,2.40
2018-03-28T13:57:55.922Z,2.40
2018-03-28T14:00:22.831Z,2.20
2018-03-28T14:02:49.830Z,2.10
2018-03-28T14:05:17.083Z,2.00
2018-03-28T14:07:43.969Z,2.53
2018-03-28T14:10:11.644Z,2.20
2018-03-28T14:12:38.638Z,2.37
2018-03-28T14:15:06.519Z,2.20
2018-03-28T14:17:34.183Z,2.87
2018-03-28T14:20:01.981Z,2.53
2018-03-28T14:22:29.676Z,2.17
2018-03-28T14:24:57.591Z,3.00
2018-03-28T14:27:24.541Z,2.60
2018-03-28T14:29:52.269Z,2.90
2018-03-28T14:32:19.257Z,2.27
2018-03-28T14:34:46.224Z,2.30
2018-03-28T14:37:13.367Z,2.50
2018-03-28T14:39:40.333Z,2.03
2018-03-28T14:42:07.474Z,2.73
2018-03-28T14:44:34.897Z,2.33
2018-03-28T14:47:01.793Z,2.23
2018-03-28T14:49:29.899Z,2.57
2018-03-28T14:51:56.971Z,2.50
2018-03-28T14:54:24.413Z,2.67
2018-03-28T14:56:51.357Z,2.33
2018-03-28T14:59:19.298Z,2.70
2018-03-28T15:01:46.299Z,2.57
2018-03-28T15:04:14.130Z,3.20
2018-03-28T15:06:41.100Z,2.77
2018-03-28T15:09:08.946Z,3.17
2018-03-28T15:11:35.844Z,2.63
2018-03-28T15:14:02.797Z,2.50
2018-03-28T15:16:30.201Z,3.03
2018-03-28T15:18:57.047Z,2.50
2018-03-28T15:21:24.104Z,3.30
2018-03-28T15:23:51.834Z,2.70
2018-03-28T15:26:18.970Z,2.30
2018-03-28T15:28:46.585Z,2.30
2018-03-28T15:31:14.568Z,2.50
2018-03-28T15:33:41.839Z,2.23
2018-03-28T15:36:08.807Z,2.20
2018-03-28T15:38:37.213Z,2.50
2018-03-28T15:41:04.094Z,2.40
2018-03-28T15:43:31.988Z,2.37
2018-03-28T15:45:58.983Z,2.50
2018-03-28T15:48:25.884Z,2.63
2018-03-28T15:50:53.134Z,2.20
2018-03-28T15:53:20.189Z,2.30
2018-03-28T15:55:47.832Z,2.50
2018-03-28T15:58:15.020Z,2.80
2018-03-28T16:00:41.927Z,2.63
2018-03-28T16:03:09.734Z,2.60
2018-03-28T16:05:37.395Z,2.00
2018-03-28T16:08:05.074Z,2.33
2018-03-28T16:10:32.012Z,3.60
2018-03-28T16:12:58.941Z,4.23
2018-03-28T16:15:26.913Z,3.30
2018-03-28T16:17:53.902Z,3.63
2018-03-28T16:20:20.942Z,3.40
2018-03-28T16:22:47.883Z,3.37
2018-03-28T16:25:14.938Z,3.77
2018-03-28T16:27:42.713Z,4.07
2018-03-28T16:30:09.668Z,3.27
2018-03-28T16:32:37.337Z,2.90
2018-03-28T16:35:04.404Z,2.50
2018-03-28T16:37:32.065Z,2.60
2018-03-28T16:39:59.661Z,2.20
2018-03-28T16:42:27.194Z,2.80
2018-03-28T16:44:54.852Z,2.13
2018-03-28T16:47:22.443Z,2.43
2018-03-28T16:49:50.041Z,2.23
2018-03-28T16:52:17.789Z,1.80
2018-03-28T16:54:44.801Z,1.93
2018-03-28T16:57:12.566Z,2.57
2018-03-28T16:59:39.533Z,1.80
2018-03-28T17:02:06.361Z,2.10
2018-03-28T17:04:33.934Z,2.10
2018-03-28T17:07:01.646Z,1.80
2018-03-28T17:09:29.221Z,2.10
2018-03-28T17:11:56.113Z,2.47
2018-03-28T17:14:23.999Z,1.60
2018-03-28T17:16:51.637Z,1.93
2018-03-28T17:19:19.620Z,1.70
2018-03-28T17:21:46.840Z,1.90
2018-03-28T17:24:13.777Z,1.90
2018-03-28T17:26:41.035Z,1.90
2018-03-28T17:29:07.912Z,2.00
2018-03-28T17:31:35.005Z,2.00
2018-03-28T17:34:03.113Z,1.53
2018-03-28T17:36:29.992Z,1.80
2018-03-28T17:38:58.087Z,1.33
2018-03-28T17:41:25.028Z,1.57
2018-03-28T17:43:53.097Z,1.80
2018-03-28T17:46:19.989Z,1.40
2018-03-28T17:48:48.400Z,2.03
2018-03-28T17:51:15.487Z,2.03
2018-03-28T17:53:42.356Z,1.57
2018-03-28T17:56:09.622Z,1.37
2018-03-28T17:58:36.625Z,1.50
2018-03-28T18:01:04.309Z,1.47
2018-03-28T18:03:31.173Z,1.33
2018-03-28T18:05:58.158Z,1.67
2018-03-28T18:08:25.791Z,1.30
2018-03-28T18:10:52.799Z,1.30
2018-03-28T18:13:20.509Z,1.30
2018-03-28T18:15:47.422Z,1.60
2018-03-28T18:18:14.947Z,1.40
2018-03-28T18:20:42.658Z,1.13
2018-03-28T18:23:10.325Z,1.30
2018-03-28T18:25:37.429Z,1.10
2018-03-28T18:28:05.158Z,1.17
2018-03-28T18:30:32.120Z,0.90
2018-03-28T18:33:00.136Z,1.10
2018-03-28T18:35:27.790Z,1.87
2018-03-28T18:37:56.233Z,1.37
2018-03-28T18:40:23.130Z,1.53
2018-03-28T18:42:51.555Z,1.40
2018-03-28T18:45:18.564Z,1.10
2018-03-28T18:47:46.743Z,1.27
2018-03-28T18:50:13.860Z,1.10
2018-03-28T18:52:41.709Z,1.50
2018-03-28T18:55:08.897Z,1.07
2018-03-28T18:57:36.532Z,1.13
2018-03-28T19:00:03.642Z,1.10
2018-03-28T19:02:32.194Z,1.27
2018-03-28T19:04:59.109Z,0.90
2018-03-28T19:07:26.782Z,0.97
2018-03-28T19:09:53.689Z,1.20
2018-03-28T19:12:21.448Z,1.37
2018-03-28T19:14:48.440Z,0.93
2018-03-28T19:17:16.213Z,1.10
2018-03-28T19:19:43.228Z,1.00
2018-03-28T19:22:11.182Z,1.50
2018-03-28T19:24:38.109Z,1.30
2018-03-28T19:27:05.221Z,1.10
2018-03-28T19:29:32.353Z,1.20
2018-03-28T19:32:00.026Z,1.37
2018-03-28T19:34:27.178Z,1.43
2018-03-28T19:36:54.329Z,1.10
2018-03-28T19:39:22.038Z,1.30
2018-03-28T19:41:49.045Z,1.10
2018-03-28T19:44:16.368Z,1.27
2018-03-28T19:46:43.346Z,1.30
2018-03-28T19:49:11.166Z,1.10
2018-03-28T19:51:38.153Z,1.03
2018-03-28T19:54:05.940Z,1.27
2018-03-28T19:56:32.945Z,1.30
2018-03-28T19:58:59.790Z,1.57
2018-03-28T20:01:28.285Z,1.30
2018-03-28T20:03:55.956Z,1.27
2018-03-28T20:06:22.910Z,1.30
2018-03-28T20:08:49.908Z,1.23
2018-03-28T20:11:17.105Z,1.50
2018-03-28T20:13:44.002Z,1.20
2018-03-28T20:16:11.781Z,1.50
2018-03-28T20:18:39.123Z,1.40
2018-03-28T20:21:07.965Z,1.83
2018-03-28T20:23:34.896Z,1.57
2018-03-28T20:26:02.190Z,2.10
2018-03-28T20:28:29.236Z,1.70
2018-03-28T20:30:56.850Z,1.63
2018-03-28T20:33:23.805Z,1.70
2018-03-28T20:35:51.527Z,1.87
2018-03-28T20:38:18.450Z,2.07
2018-03-28T20:40:47.006Z,2.17
2018-03-28T20:43:13.962Z,1.73
2018-03-28T20:45:41.002Z,2.00
2018-03-28T20:48:08.169Z,1.70
2018-03-28T20:50:35.006Z,1.33
2018-03-28T20:53:02.992Z,2.03
2018-03-28T20:55:29.880Z,1.87
2018-03-28T20:57:57.551Z,1.60
2018-03-28T21:00:24.395Z,1.57
2018-03-28T21:02:51.608Z,1.60
2018-03-28T21:05:18.880Z,1.50
2018-03-28T21:07:45.890Z,1.50
2018-03-28T21:10:13.489Z,1.20
2018-03-28T21:12:40.383Z,1.70
2018-03-28T21:15:08.009Z,1.40
2018-03-28T21:17:34.814Z,1.10
2018-03-28T21:20:01.686Z,1.43
2018-03-28T21:22:28.856Z,1.33
2018-03-28T21:24:55.773Z,1.20
2018-03-28T21:27:23.571Z,1.30
2018-03-28T21:29:50.523Z,1.20
2018-03-28T21:32:18.154Z,1.23
2018-03-28T21:34:45.135Z,1.23
2018-03-28T21:37:12.822Z,1.63
2018-03-28T21:39:40.466Z,1.00
2018-03-28T21:42:08.224Z,1.13
2018-03-28T21:44:35.211Z,1.40
2018-03-28T21:47:03.470Z,1.50
2018-03-28T21:49:30.425Z,1.00
2018-03-28T21:51:58.036Z,1.20
2018-03-28T21:54:24.933Z,1.20
2018-03-28T21:56:51.899Z,1.00
2018-03-28T21:59:19.555Z,1.13
2018-03-28T22:01:46.468Z,1.40
2018-03-28T22:04:14.076Z,1.40
2018-03-28T22:06:41.003Z,1.20
2018-03-28T22:09:08.770Z,1.33
2018-03-28T22:11:35.931Z,1.17
2018-03-28T22:14:03.751Z,1.30
2018-03-28T22:16:30.648Z,1.20
2018-03-28T22:18:57.501Z,1.17
2018-03-28T22:21:25.890Z,1.40
2018-03-28T22:23:52.844Z,1.00
2018-03-28T22:26:19.844Z,1.30
2018-03-28T22:28:46.622Z,1.10
2018-03-28T22:31:13.397Z,1.20
2018-03-28T22:33:40.541Z,1.33
2018-03-28T22:36:07.603Z,1.00
2018-03-28T22:38:35.367Z,1.10
2018-03-28T22:41:02.334Z,1.00
2018-03-28T22:43:30.199Z,1.50
2018-03-28T22:45:57.780Z,1.00
2018-03-28T22:48:25.376Z,1.30
2018-03-28T22:50:52.288Z,1.60
2018-03-28T22:53:20.760Z,1.27
2018-03-28T22:55:47.697Z,1.10
2018-03-28T22:58:15.461Z,1.17
2018-03-28T23:00:42.412Z,1.60
2018-03-28T23:03:10.216Z,1.00
2018-03-28T23:05:37.134Z,1.43
2018-03-28T23:08:04.205Z,1.83
2018-03-28T23:10:31.344Z,1.77
2018-03-28T23:12:58.248Z,1.27
2018-03-28T23:15:25.911Z,1.47
2018-03-28T23:17:53.003Z,1.10
2018-03-28T23:20:20.621Z,1.17
2018-03-28T23:22:47.529Z,1.63
2018-03-28T23:25:14.324Z,1.27
2018-03-28T23:27:41.644Z,1.20
2018-03-28T23:30:08.682Z,1.10
2018-03-28T23:32:36.369Z,1.10
2018-03-28T23:35:03.302Z,0.97
2018-03-28T23:37:30.155Z,1.27
2018-03-28T23:39:57.471Z,1.37
2018-03-28T23:42:24.484Z,1.27
2018-03-28T23:44:52.890Z,1.30
2018-03-28T23:47:19.797Z,1.33
2018-03-28T23:49:47.568Z,1.30
2018-03-28T23:52:14.737Z,1.30
2018-03-28T23:54:41.767Z,1.20
2018-03-28T23:57:09.076Z,1.77
2018-03-28T23:59:35.907Z,1.37
